Alexander, NY

11:38 PM EST on December 18, 2014 (GMT -0500)
South of village | Change Station
CLOSE
Current Station
Personal Weather Station
Location: Attica, NY
Elevation: 1007 ft
Nearby Weather Stations
Active Advisory: Winter Weather Advisory

Elev 1007 ft 42.84 °N, 78.29 °W | Updated 6 seconds ago

Overcast
Overcast
26.8 °F
Feels Like 27 °F
N
2.7
Wind Variable Wind from NNE
Gusts 5.8 mph

Today
High -- | Low -- °F
--% Chance of Precip.
Yesterday
High -- | Low -- °F
Precip. -- in
7:39 AM 4:40 PM
Waning Crescent, 10% visible
Pressure 30.10 in
Visibility 10.0 miles
Clouds Overcast 1200 ft
Windchill 27 °F
Dew Point 27 °F
Humidity 99%
Rainfall 0.00 in
Snow Depth Not available.
UV 0 out of 12
Pollen .10 out of 12
Air Quality Not available.
Flu Activity Not available.
METAR KBUF 190354Z 31009KT 10SM OVC012 M02/M04 A3007 RMK AO2 SLP193 T10221044

More Conditions Fewer Conditions

Pressure 30.10 in
Visibility 10.0 miles
Clouds Overcast 1200 ft
Windchill 27 °F
Dew Point 27 °F
Humidity 99%
Rainfall 0.00 in
Snow Depth Not available.
UV 0 out of 12
Pollen .10 out of 12
Air Quality Not available.
Flu Activity Not available.
METAR KBUF 190354Z 31009KT 10SM OVC012 M02/M04 A3007 RMK AO2 SLP193 T10221044

More Conditions Fewer Conditions

10-Day Weather Forecast

Almanac

Astronomy

Dec. 18, 2014 Rise Set
Actual Time
Civil Twilight
Nautical Twilight
Astronomical Twilight
Moon
Length of Visible Light
Length of Day
Tomorrow will be .
, % of the Moon is Illuminated

Today's Extremes

State Highs State Lows

Community

WunderPhotos

Upload Photos

1,778,963 photos uploaded!

WunderBlogs® & News

Nearby

Air Quality

  Air Quality AQ Index Pollutant
Not available.

Snow Depth

Station Depth Elevation

Earthquake Activity

City Distance Mag. Time & Date
Minimum magnitude displayed is 2.5.

Coastal Water Temperatures

Place Temperature

Nearby Weather Stations